createdAt,value
2017-11-03T00:00:11.077Z,0
2017-11-03T00:01:11.386Z,0
2017-11-03T00:02:11.072Z,0
2017-11-03T00:03:10.714Z,0
2017-11-03T00:04:11.352Z,0
2017-11-03T00:05:11.360Z,0
2017-11-03T00:06:11.006Z,0
2017-11-03T00:07:11.658Z,0
2017-11-03T00:08:11.666Z,0
2017-11-03T00:09:10.953Z,0
2017-11-03T00:10:10.928Z,0
2017-11-03T00:11:10.598Z,0
2017-11-03T00:12:11.663Z,0
2017-11-03T00:13:10.551Z,0
2017-11-03T00:14:10.882Z,0
2017-11-03T00:15:11.218Z,0
2017-11-03T00:16:11.206Z,0
2017-11-03T00:17:10.869Z,0
2017-11-03T00:18:11.172Z,0
2017-11-03T00:19:10.484Z,0
2017-11-03T00:20:10.461Z,0
2017-11-03T00:21:10.787Z,0
2017-11-03T00:22:10.435Z,0
2017-11-03T00:23:11.454Z,0
2017-11-03T00:24:11.102Z,0
2017-11-03T00:25:10.405Z,0
2017-11-03T00:26:10.388Z,0
2017-11-03T00:27:10.388Z,0
2017-11-03T00:28:10.376Z,0
2017-11-03T00:29:10.686Z,0
2017-11-03T00:30:11.008Z,0
2017-11-03T00:31:10.660Z,0
2017-11-03T00:32:10.644Z,0
2017-11-03T00:33:10.630Z,0
2017-11-03T00:34:10.623Z,0
2017-11-03T00:35:10.612Z,0
2017-11-03T00:36:10.945Z,0
2017-11-03T00:37:10.582Z,0
2017-11-03T00:38:11.259Z,0
2017-11-03T00:39:11.266Z,0
2017-11-03T00:40:11.227Z,0
2017-11-03T00:41:10.542Z,0
2017-11-03T00:42:10.181Z,0
2017-11-03T00:43:10.844Z,0
2017-11-03T00:44:10.152Z,0
2017-11-03T00:45:10.826Z,0
2017-11-03T00:46:10.467Z,0
2017-11-03T00:47:10.131Z,0
2017-11-03T00:48:10.107Z,0
2017-11-03T00:49:10.097Z,0
2017-11-03T00:50:10.419Z,0
2017-11-03T00:51:11.441Z,0
2017-11-03T00:52:10.391Z,0
2017-11-03T00:53:10.065Z,0
2017-11-03T00:54:10.374Z,0
2017-11-03T00:55:10.743Z,0
2017-11-03T00:56:10.757Z,0
2017-11-03T00:57:10.348Z,0
2017-11-03T00:58:10.313Z,0
2017-11-03T00:59:10.650Z,0
2017-11-03T01:00:11.030Z,0
2017-11-03T01:01:09.938Z,0
2017-11-03T01:02:10.276Z,0
2017-11-03T01:03:10.939Z,0
2017-11-03T01:04:10.257Z,0
2017-11-03T01:05:10.923Z,0
2017-11-03T01:06:10.566Z,0
2017-11-03T01:07:10.218Z,0
2017-11-03T01:08:10.900Z,0
2017-11-03T01:09:10.191Z,0
2017-11-03T01:10:10.512Z,0
2017-11-03T01:11:10.500Z,0
2017-11-03T01:12:10.829Z,0
2017-11-03T01:13:09.806Z,0
2017-11-03T01:14:09.784Z,0
2017-11-03T01:15:10.463Z,0
2017-11-03T01:16:10.094Z,0
2017-11-03T01:17:10.081Z,0
2017-11-03T01:18:10.408Z,0
2017-11-03T01:19:10.074Z,0
2017-11-03T01:20:10.749Z,0
2017-11-03T01:21:10.390Z,0
2017-11-03T01:22:10.373Z,0
2017-11-03T01:23:10.351Z,0
2017-11-03T01:24:10.016Z,0
2017-11-03T01:25:10.324Z,0
2017-11-03T01:26:10.311Z,0
2017-11-03T01:27:09.621Z,0
2017-11-03T01:28:09.934Z,0
2017-11-03T01:29:10.669Z,0
2017-11-03T01:30:10.270Z,0
2017-11-03T01:31:09.557Z,0
2017-11-03T01:32:09.546Z,0
2017-11-03T01:33:09.912Z,0
2017-11-03T01:34:10.198Z,0
2017-11-03T01:35:09.851Z,0
2017-11-03T01:36:09.832Z,0
2017-11-03T01:37:10.182Z,0
2017-11-03T01:38:09.822Z,0
2017-11-03T01:39:09.458Z,0
2017-11-03T01:40:10.472Z,0
2017-11-03T01:41:09.763Z,0
2017-11-03T01:42:09.411Z,0
2017-11-03T01:43:09.742Z,0
2017-11-03T01:44:09.424Z,0
2017-11-03T01:45:10.758Z,0
2017-11-03T01:46:09.700Z,0
2017-11-03T01:47:10.396Z,0
2017-11-03T01:48:09.679Z,0
2017-11-03T01:49:10.346Z,0
2017-11-03T01:50:09.993Z,0
2017-11-03T01:51:09.666Z,0
2017-11-03T01:52:09.625Z,0
2017-11-03T01:53:10.300Z,0
2017-11-03T01:54:09.933Z,0
2017-11-03T01:55:09.943Z,0
2017-11-03T01:56:09.958Z,0
2017-11-03T01:57:09.561Z,0
2017-11-03T01:58:09.207Z,0
2017-11-03T01:59:09.192Z,0
2017-11-03T02:00:09.889Z,0
2017-11-03T02:01:09.172Z,0
2017-11-03T02:02:09.497Z,0
2017-11-03T02:03:09.185Z,0
2017-11-03T02:04:09.829Z,0
2017-11-03T02:05:09.152Z,0
2017-11-03T02:06:09.785Z,0
2017-11-03T02:07:09.438Z,0
2017-11-03T02:08:09.100Z,0
2017-11-03T02:09:09.408Z,0
2017-11-03T02:10:10.120Z,0
2017-11-03T02:11:09.757Z,0
2017-11-03T02:12:09.713Z,0
2017-11-03T02:13:09.378Z,0
2017-11-03T02:14:09.353Z,0
2017-11-03T02:15:09.664Z,0
2017-11-03T02:16:08.987Z,0
2017-11-03T02:17:09.019Z,0
2017-11-03T02:18:09.317Z,0
2017-11-03T02:19:09.630Z,0
2017-11-03T02:20:08.947Z,0
2017-11-03T02:21:09.272Z,0
2017-11-03T02:22:09.283Z,0
2017-11-03T02:23:09.230Z,0
2017-11-03T02:24:09.211Z,0
2017-11-03T02:25:09.199Z,0
2017-11-03T02:26:08.853Z,0
2017-11-03T02:27:09.187Z,0
2017-11-03T02:28:09.185Z,0
2017-11-03T02:29:09.840Z,0
2017-11-03T02:30:09.149Z,0
2017-11-03T02:31:08.816Z,0
2017-11-03T02:32:09.474Z,0
2017-11-03T02:33:09.144Z,0
2017-11-03T02:34:09.429Z,0
2017-11-03T02:35:08.737Z,0
2017-11-03T02:36:09.431Z,0
2017-11-03T02:37:08.723Z,0
2017-11-03T02:38:09.048Z,0
2017-11-03T02:39:09.030Z,0
2017-11-03T02:40:09.017Z,0
2017-11-03T02:41:08.657Z,0
2017-11-03T02:42:10.023Z,0
2017-11-03T02:43:09.341Z,0
2017-11-03T02:44:08.617Z,0
2017-11-03T02:45:09.294Z,0
2017-11-03T02:46:10.938Z,0
2017-11-03T02:47:09.648Z,0
2017-11-03T02:48:09.250Z,0
2017-11-03T02:49:09.251Z,0
2017-11-03T02:50:09.590Z,0
2017-11-03T02:51:08.912Z,0
2017-11-03T02:52:08.906Z,0
2017-11-03T02:53:08.856Z,0
2017-11-03T02:54:08.836Z,0
2017-11-03T02:55:08.484Z,0
2017-11-03T02:56:09.151Z,0
2017-11-03T02:57:08.807Z,0
2017-11-03T02:58:09.133Z,0
2017-11-03T02:59:08.454Z,0
2017-11-03T03:00:09.112Z,0
2017-11-03T03:01:08.802Z,0
2017-11-03T03:02:09.089Z,0
2017-11-03T03:03:08.395Z,0
2017-11-03T03:04:09.058Z,0
2017-11-03T03:05:08.748Z,0
2017-11-03T03:06:08.697Z,0
2017-11-03T03:07:09.033Z,0
2017-11-03T03:08:09.010Z,0
2017-11-03T03:09:08.312Z,0
2017-11-03T03:10:08.310Z,0
2017-11-03T03:11:08.651Z,0
2017-11-03T03:12:08.305Z,0
2017-11-03T03:13:08.262Z,0
2017-11-03T03:14:08.594Z,0
2017-11-03T03:15:09.144Z,0
2017-11-03T03:16:08.604Z,0
2017-11-03T03:17:08.570Z,0
2017-11-03T03:18:08.941Z,0
2017-11-03T03:19:08.523Z,0
2017-11-03T03:20:08.518Z,0
2017-11-03T03:21:08.181Z,0
2017-11-03T03:22:08.858Z,0
2017-11-03T03:23:08.475Z,0
2017-11-03T03:24:08.132Z,0
2017-11-03T03:25:08.453Z,0
2017-11-03T03:26:08.107Z,0
2017-11-03T03:27:08.438Z,0
2017-11-03T03:28:08.444Z,0
2017-11-03T03:29:08.403Z,0
2017-11-03T03:30:08.074Z,0
2017-11-03T03:31:08.058Z,0
2017-11-03T03:32:08.707Z,0
2017-11-03T03:33:08.387Z,0
2017-11-03T03:34:09.377Z,0
2017-11-03T03:35:08.340Z,0
2017-11-03T03:36:08.313Z,0
2017-11-03T03:37:08.316Z,0
2017-11-03T03:38:08.323Z,0
2017-11-03T03:39:08.297Z,0
2017-11-03T03:40:08.997Z,0
2017-11-03T03:41:08.294Z,0
2017-11-03T03:42:08.609Z,0
2017-11-03T03:43:08.577Z,0
2017-11-03T03:44:07.898Z,0
2017-11-03T03:45:08.568Z,0
2017-11-03T03:46:09.245Z,0
2017-11-03T03:47:08.182Z,0
2017-11-03T03:48:08.510Z,0
2017-11-03T03:49:08.156Z,0
2017-11-03T03:50:07.829Z,0
2017-11-03T03:51:07.790Z,0
2017-11-03T03:52:08.575Z,0
2017-11-03T03:53:08.150Z,0
2017-11-03T03:54:08.116Z,0
2017-11-03T03:55:07.747Z,0
2017-11-03T03:56:08.434Z,0
2017-11-03T03:57:07.715Z,0
2017-11-03T03:58:08.065Z,0
2017-11-03T03:59:08.387Z,0
2017-11-03T04:00:08.409Z,0
2017-11-03T04:01:08.346Z,0
2017-11-03T04:02:07.652Z,0
2017-11-03T04:03:08.321Z,0
2017-11-03T04:04:07.980Z,0
2017-11-03T04:05:08.292Z,0
2017-11-03T04:06:07.611Z,0
2017-11-03T04:07:07.590Z,0
2017-11-03T04:08:08.597Z,0
2017-11-03T04:09:08.270Z,0
2017-11-03T04:10:07.555Z,0
2017-11-03T04:11:08.247Z,0
2017-11-03T04:12:07.869Z,0
2017-11-03T04:13:07.860Z,0
2017-11-03T04:14:08.192Z,0
2017-11-03T04:15:08.197Z,0
2017-11-03T04:16:08.249Z,0
2017-11-03T04:17:07.479Z,0
2017-11-03T04:18:08.163Z,0
2017-11-03T04:19:07.490Z,0
2017-11-03T04:20:07.804Z,0
2017-11-03T04:21:08.116Z,0
2017-11-03T04:22:07.402Z,0
2017-11-03T04:23:07.408Z,0
2017-11-03T04:24:07.718Z,0
2017-11-03T04:25:07.709Z,0
2017-11-03T04:26:07.350Z,0
2017-11-03T04:27:07.343Z,0
2017-11-03T04:28:07.671Z,0
2017-11-03T04:29:07.656Z,0
2017-11-03T04:30:07.996Z,0
2017-11-03T04:31:08.315Z,0
2017-11-03T04:32:07.650Z,0
2017-11-03T04:33:07.267Z,0
2017-11-03T04:34:07.603Z,0
2017-11-03T04:35:07.602Z,0
2017-11-03T04:36:07.943Z,0
2017-11-03T04:37:07.217Z,0
2017-11-03T04:38:07.560Z,0
2017-11-03T04:39:07.193Z,0
2017-11-03T04:40:07.531Z,0
2017-11-03T04:41:07.170Z,0
2017-11-03T04:42:07.169Z,0
2017-11-03T04:43:07.836Z,0
2017-11-03T04:44:07.860Z,0
2017-11-03T04:45:07.833Z,0
2017-11-03T04:46:07.107Z,0
2017-11-03T04:47:07.796Z,0
2017-11-03T04:48:07.086Z,0
2017-11-03T04:49:07.085Z,0
2017-11-03T04:50:07.753Z,0
2017-11-03T04:51:07.052Z,0
2017-11-03T04:52:07.374Z,0
2017-11-03T04:53:07.403Z,0
2017-11-03T04:54:07.344Z,0
2017-11-03T04:55:07.671Z,0
2017-11-03T04:56:07.318Z,0
2017-11-03T04:57:07.309Z,0
2017-11-03T04:58:07.634Z,0
2017-11-03T04:59:07.304Z,0
2017-11-03T05:00:07.269Z,0
2017-11-03T05:01:08.299Z,0
2017-11-03T05:02:07.596Z,0
2017-11-03T05:03:06.893Z,0
2017-11-03T05:04:07.217Z,0
2017-11-03T05:05:06.871Z,0
2017-11-03T05:06:07.218Z,0
2017-11-03T05:07:07.535Z,0
2017-11-03T05:08:07.170Z,0
2017-11-03T05:09:07.160Z,0
2017-11-03T05:10:07.145Z,0
2017-11-03T05:11:07.151Z,0
2017-11-03T05:12:07.125Z,0
2017-11-03T05:13:06.775Z,0
2017-11-03T05:14:07.108Z,0
2017-11-03T05:15:07.426Z,0
2017-11-03T05:16:07.416Z,0
2017-11-03T05:17:07.753Z,0
2017-11-03T05:18:07.400Z,0
2017-11-03T05:19:07.068Z,0
2017-11-03T05:20:07.044Z,0
2017-11-03T05:21:07.039Z,0
2017-11-03T05:22:07.349Z,0
2017-11-03T05:23:06.644Z,0
2017-11-03T05:24:06.982Z,0
2017-11-03T05:25:06.616Z,0
2017-11-03T05:26:06.976Z,0
2017-11-03T05:27:07.625Z,0
2017-11-03T05:28:06.926Z,0
2017-11-03T05:29:07.952Z,0
2017-11-03T05:30:06.931Z,0
2017-11-03T05:31:06.547Z,0
2017-11-03T05:32:06.876Z,0
2017-11-03T05:33:06.523Z,0
2017-11-03T05:34:07.225Z,0
2017-11-03T05:35:06.855Z,0
2017-11-03T05:36:06.480Z,0
2017-11-03T05:37:06.835Z,0
2017-11-03T05:38:06.814Z,0
2017-11-03T05:39:06.804Z,0
2017-11-03T05:40:06.430Z,0
2017-11-03T05:41:06.761Z,0
2017-11-03T05:42:07.096Z,0
2017-11-03T05:43:06.741Z,0
2017-11-03T05:44:06.732Z,0
2017-11-03T05:45:06.367Z,0
2017-11-03T05:46:06.692Z,0
2017-11-03T05:47:06.700Z,0
2017-11-03T05:48:07.366Z,0
2017-11-03T05:49:07.005Z,0
2017-11-03T05:50:06.326Z,0
2017-11-03T05:51:06.293Z,0
2017-11-03T05:52:06.965Z,0
2017-11-03T05:53:06.615Z,0
2017-11-03T05:54:07.283Z,0
2017-11-03T05:55:06.960Z,0
2017-11-03T05:56:06.229Z,0
2017-11-03T05:57:06.223Z,0
2017-11-03T05:58:06.886Z,0
2017-11-03T05:59:06.192Z,0
2017-11-03T06:00:06.199Z,0
2017-11-03T06:01:06.846Z,0
2017-11-03T06:02:06.844Z,0
2017-11-03T06:03:06.839Z,0
2017-11-03T06:04:06.133Z,0
2017-11-03T06:05:06.477Z,0
2017-11-03T06:06:06.100Z,0
2017-11-03T06:07:06.471Z,0
2017-11-03T06:08:06.767Z,0
2017-11-03T06:09:06.068Z,0
2017-11-03T06:10:06.062Z,0
2017-11-03T06:11:06.378Z,0
2017-11-03T06:12:06.370Z,0
2017-11-03T06:13:06.024Z,5
2017-11-03T06:14:06.034Z,5
2017-11-03T06:15:06.678Z,5
2017-11-03T06:16:06.338Z,5
2017-11-03T06:17:06.663Z,5
2017-11-03T06:18:06.295Z,5
2017-11-03T06:19:06.280Z,5
2017-11-03T06:20:05.932Z,5
2017-11-03T06:21:06.615Z,5
2017-11-03T06:22:05.905Z,5
2017-11-03T06:23:06.232Z,5
2017-11-03T06:24:06.223Z,5
2017-11-03T06:25:06.542Z,5
2017-11-03T06:26:06.199Z,5
2017-11-03T06:27:06.185Z,5
2017-11-03T06:28:06.180Z,5
2017-11-03T06:29:06.543Z,5
2017-11-03T06:30:06.483Z,5
2017-11-03T06:31:06.848Z,5
2017-11-03T06:32:06.476Z,5
2017-11-03T06:33:06.473Z,5
2017-11-03T06:34:06.443Z,5
2017-11-03T06:35:06.427Z,5
2017-11-03T06:36:05.747Z,5
2017-11-03T06:37:05.724Z,5
2017-11-03T06:38:06.395Z,5
2017-11-03T06:39:05.690Z,5
2017-11-03T06:40:06.365Z,5
2017-11-03T06:41:06.348Z,5
2017-11-03T06:42:06.690Z,5
2017-11-03T06:43:05.664Z,5
2017-11-03T06:44:06.324Z,5
2017-11-03T06:45:05.967Z,5
2017-11-03T06:46:06.630Z,10
2017-11-03T06:47:06.298Z,10
2017-11-03T06:48:06.614Z,10
2017-11-03T06:49:05.583Z,10
2017-11-03T06:50:05.911Z,10
2017-11-03T06:51:05.909Z,10
2017-11-03T06:52:06.223Z,10
2017-11-03T06:53:05.514Z,10
2017-11-03T06:54:06.524Z,10
2017-11-03T06:55:06.181Z,15
2017-11-03T06:56:06.156Z,15
2017-11-03T06:57:05.466Z,15
2017-11-03T06:58:05.455Z,15
2017-11-03T06:59:05.782Z,20
2017-11-03T07:00:06.125Z,20
2017-11-03T07:01:05.771Z,25
2017-11-03T07:02:05.410Z,25
2017-11-03T07:03:05.403Z,25
2017-11-03T07:04:06.076Z,25
2017-11-03T07:05:06.051Z,25
2017-11-03T07:06:05.716Z,25
2017-11-03T07:07:05.339Z,25
2017-11-03T07:08:05.706Z,25
2017-11-03T07:09:05.673Z,30
2017-11-03T07:10:05.991Z,30
2017-11-03T07:11:05.665Z,35
2017-11-03T07:12:05.622Z,40
2017-11-03T07:13:05.617Z,40
2017-11-03T07:14:05.598Z,45
2017-11-03T07:15:06.268Z,45
2017-11-03T07:16:05.925Z,45
2017-11-03T07:17:05.899Z,40
2017-11-03T07:18:06.245Z,40
2017-11-03T07:19:05.887Z,40
2017-11-03T07:20:05.193Z,35
2017-11-03T07:21:06.197Z,40
2017-11-03T07:22:05.535Z,45
2017-11-03T07:23:05.830Z,50
2017-11-03T07:24:05.487Z,50
2017-11-03T07:25:05.519Z,50
2017-11-03T07:26:05.506Z,50
2017-11-03T07:27:05.100Z,50
2017-11-03T07:28:05.785Z,50
2017-11-03T07:29:05.430Z,50
2017-11-03T07:30:05.061Z,50
2017-11-03T07:31:05.392Z,55
2017-11-03T07:32:05.730Z,60
2017-11-03T07:33:06.434Z,60
2017-11-03T07:34:05.690Z,60
2017-11-03T07:35:05.684Z,60
2017-11-03T07:36:05.674Z,60
2017-11-03T07:37:05.324Z,60
2017-11-03T07:38:06.010Z,60
2017-11-03T07:39:05.977Z,55
2017-11-03T07:40:05.299Z,55
2017-11-03T07:41:05.283Z,55
2017-11-03T07:42:04.923Z,60
2017-11-03T07:43:05.280Z,60
2017-11-03T07:44:05.583Z,60
2017-11-03T07:45:05.576Z,60
2017-11-03T07:46:05.561Z,60
2017-11-03T07:47:05.199Z,65
2017-11-03T07:48:06.237Z,60
2017-11-03T07:49:05.527Z,60
2017-11-03T07:50:05.211Z,60
2017-11-03T07:51:05.520Z,60
2017-11-03T07:52:05.496Z,60
2017-11-03T07:53:05.126Z,65
2017-11-03T07:54:05.123Z,70
2017-11-03T07:55:05.120Z,75
2017-11-03T07:56:05.094Z,85
2017-11-03T07:57:05.423Z,95
2017-11-03T07:58:05.082Z,105
2017-11-03T07:59:05.415Z,110
2017-11-03T08:00:05.059Z,110
2017-11-03T08:01:05.384Z,115
2017-11-03T08:02:05.025Z,115
2017-11-03T08:03:05.708Z,120
2017-11-03T08:04:05.345Z,120
2017-11-03T08:05:05.030Z,125
2017-11-03T08:06:04.657Z,130
2017-11-03T08:07:04.976Z,130
2017-11-03T08:08:05.651Z,135
2017-11-03T08:09:05.341Z,135
2017-11-03T08:10:05.654Z,135
2017-11-03T08:11:04.932Z,135
2017-11-03T08:12:05.590Z,135
2017-11-03T08:13:04.899Z,135
2017-11-03T08:14:05.225Z,135
2017-11-03T08:15:05.441Z,135
2017-11-03T08:16:04.860Z,135
2017-11-03T08:17:04.859Z,140
2017-11-03T08:18:04.518Z,145
2017-11-03T08:19:05.524Z,150
2017-11-03T08:20:04.814Z,150
2017-11-03T08:21:04.813Z,150
2017-11-03T08:22:05.145Z,145
2017-11-03T08:23:05.470Z,145
2017-11-03T08:24:04.774Z,150
2017-11-03T08:25:04.781Z,150
2017-11-03T08:26:04.773Z,150
2017-11-03T08:27:05.435Z,150
2017-11-03T08:28:05.408Z,150
2017-11-03T08:29:05.770Z,155
2017-11-03T08:30:04.727Z,150
2017-11-03T08:31:04.691Z,150
2017-11-03T08:32:05.373Z,145
2017-11-03T08:33:05.352Z,145
2017-11-03T08:34:04.326Z,140
2017-11-03T08:35:04.990Z,140
2017-11-03T08:36:04.645Z,135
2017-11-03T08:37:04.290Z,135
2017-11-03T08:38:04.621Z,125
2017-11-03T08:39:04.948Z,125
2017-11-03T08:40:04.601Z,125
2017-11-03T08:41:04.249Z,120
2017-11-03T08:42:04.923Z,120
2017-11-03T08:43:04.575Z,120
2017-11-03T08:44:04.897Z,125
2017-11-03T08:45:05.226Z,125
2017-11-03T08:46:04.553Z,130
2017-11-03T08:47:04.862Z,130
2017-11-03T08:48:04.544Z,135
2017-11-03T08:49:04.502Z,145
2017-11-03T08:50:04.147Z,150
2017-11-03T08:51:04.819Z,160
2017-11-03T08:52:04.473Z,170
2017-11-03T08:53:04.472Z,180
2017-11-03T08:54:04.790Z,190
2017-11-03T08:55:04.781Z,185
2017-11-03T08:56:04.432Z,190
2017-11-03T08:57:04.778Z,195
2017-11-03T08:58:04.407Z,195
2017-11-03T08:59:04.050Z,200
2017-11-03T09:00:04.405Z,205
2017-11-03T09:01:04.379Z,205
2017-11-03T09:02:04.019Z,210
2017-11-03T09:03:05.040Z,205
2017-11-03T09:04:04.692Z,200
2017-11-03T09:05:04.329Z,190
2017-11-03T09:06:04.668Z,185
2017-11-03T09:07:03.986Z,180
2017-11-03T09:08:05.004Z,190
2017-11-03T09:09:03.984Z,195
2017-11-03T09:10:03.955Z,195
2017-11-03T09:11:04.273Z,195
2017-11-03T09:12:04.603Z,195
2017-11-03T09:13:03.909Z,195
2017-11-03T09:14:03.912Z,190
2017-11-03T09:15:03.941Z,180
2017-11-03T09:16:03.881Z,175
2017-11-03T09:17:04.208Z,165
2017-11-03T09:18:03.856Z,155
2017-11-03T09:19:04.193Z,155
2017-11-03T09:20:04.175Z,155
2017-11-03T09:21:04.535Z,155
2017-11-03T09:22:04.550Z,140
2017-11-03T09:23:04.856Z,130
2017-11-03T09:24:04.506Z,125
2017-11-03T09:25:04.816Z,130
2017-11-03T09:26:04.120Z,130
2017-11-03T09:27:04.109Z,135
2017-11-03T09:28:04.115Z,135
2017-11-03T09:29:04.089Z,140
2017-11-03T09:30:03.738Z,140
2017-11-03T09:31:04.083Z,140
2017-11-03T09:32:03.738Z,135
2017-11-03T09:33:03.729Z,145
2017-11-03T09:34:04.073Z,155
2017-11-03T09:35:03.711Z,155
2017-11-03T09:36:04.039Z,150
2017-11-03T09:37:04.012Z,140
2017-11-03T09:38:04.361Z,135
2017-11-03T09:39:04.000Z,130
2017-11-03T09:40:03.976Z,120
2017-11-03T09:41:04.318Z,115
2017-11-03T09:42:04.297Z,115
2017-11-03T09:43:03.948Z,110
2017-11-03T09:44:04.295Z,105
2017-11-03T09:45:04.261Z,100
2017-11-03T09:46:04.289Z,100
2017-11-03T09:47:03.967Z,100
2017-11-03T09:48:03.556Z,100
2017-11-03T09:49:03.545Z,95
2017-11-03T09:50:04.235Z,100
2017-11-03T09:51:03.866Z,100
2017-11-03T09:52:04.195Z,100
2017-11-03T09:53:04.198Z,95
2017-11-03T09:54:04.177Z,95
2017-11-03T09:55:03.491Z,95
2017-11-03T09:56:04.173Z,100
2017-11-03T09:57:04.152Z,110
2017-11-03T09:58:04.831Z,105
2017-11-03T09:59:04.182Z,110
2017-11-03T10:00:03.782Z,120
2017-11-03T10:01:03.752Z,120
2017-11-03T10:02:04.455Z,125
2017-11-03T10:03:03.736Z,130
2017-11-03T10:04:03.730Z,125
2017-11-03T10:05:03.716Z,125
2017-11-03T10:06:04.045Z,125
2017-11-03T10:07:04.035Z,130
2017-11-03T10:08:04.032Z,125
2017-11-03T10:09:04.016Z,125
2017-11-03T10:10:04.011Z,120
2017-11-03T10:11:03.309Z,120
2017-11-03T10:12:04.329Z,115
2017-11-03T10:13:03.628Z,115
2017-11-03T10:14:03.959Z,115
2017-11-03T10:15:03.605Z,110
2017-11-03T10:16:03.958Z,110
2017-11-03T10:17:03.588Z,110
2017-11-03T10:18:03.590Z,115
2017-11-03T10:19:03.566Z,115
2017-11-03T10:20:03.557Z,115
2017-11-03T10:21:03.550Z,120
2017-11-03T10:22:03.194Z,120
2017-11-03T10:23:03.558Z,120
2017-11-03T10:24:03.171Z,115
2017-11-03T10:25:03.513Z,115
2017-11-03T10:26:03.507Z,115
2017-11-03T10:27:03.846Z,115
2017-11-03T10:28:03.478Z,115
2017-11-03T10:29:03.465Z,115
2017-11-03T10:30:03.465Z,115
2017-11-03T10:31:03.449Z,115
2017-11-03T10:32:03.431Z,110
2017-11-03T10:33:03.425Z,110
2017-11-03T10:34:03.071Z,110
2017-11-03T10:35:03.417Z,110
2017-11-03T10:36:03.738Z,110
2017-11-03T10:37:03.729Z,110
2017-11-03T10:38:04.067Z,115
2017-11-03T10:39:03.366Z,115
2017-11-03T10:40:04.044Z,115
2017-11-03T10:41:03.352Z,115
2017-11-03T10:42:03.681Z,115
2017-11-03T10:43:03.322Z,115
2017-11-03T10:44:03.318Z,120
2017-11-03T10:45:03.649Z,115
2017-11-03T10:46:03.305Z,115
2017-11-03T10:47:03.629Z,115
2017-11-03T10:48:03.301Z,115
2017-11-03T10:49:03.277Z,115
2017-11-03T10:50:03.263Z,115
2017-11-03T10:51:03.246Z,110
2017-11-03T10:52:03.920Z,110
2017-11-03T10:53:03.570Z,110
2017-11-03T10:54:03.234Z,110
2017-11-03T10:55:02.868Z,110
2017-11-03T10:56:03.205Z,110
2017-11-03T10:57:03.190Z,110
2017-11-03T10:58:03.906Z,110
2017-11-03T10:59:03.542Z,110
2017-11-03T11:00:03.155Z,110
2017-11-03T11:01:02.811Z,110
2017-11-03T11:02:03.154Z,110
2017-11-03T11:03:03.142Z,110
2017-11-03T11:04:03.125Z,110
2017-11-03T11:05:03.803Z,110
2017-11-03T11:06:02.782Z,110
2017-11-03T11:07:03.437Z,110
2017-11-03T11:08:03.770Z,110
2017-11-03T11:09:02.735Z,110
2017-11-03T11:10:03.119Z,110
2017-11-03T11:11:02.715Z,110
2017-11-03T11:12:03.391Z,110
2017-11-03T11:13:02.694Z,110
2017-11-03T11:14:02.685Z,110
2017-11-03T11:15:02.677Z,110
2017-11-03T11:16:03.006Z,115
2017-11-03T11:17:02.995Z,115
2017-11-03T11:18:03.333Z,110
2017-11-03T11:19:02.986Z,110
2017-11-03T11:20:03.659Z,110
2017-11-03T11:21:02.987Z,110
2017-11-03T11:22:02.974Z,110
2017-11-03T11:23:02.933Z,110
2017-11-03T11:24:02.949Z,110
2017-11-03T11:25:03.265Z,110
2017-11-03T11:26:02.914Z,110
2017-11-03T11:27:03.246Z,110
2017-11-03T11:28:03.238Z,110
2017-11-03T11:29:03.231Z,105
2017-11-03T11:30:02.893Z,105
2017-11-03T11:31:03.201Z,105
2017-11-03T11:32:02.525Z,105
2017-11-03T11:33:03.205Z,105
2017-11-03T11:34:02.496Z,105
2017-11-03T11:35:02.854Z,105
2017-11-03T11:36:02.820Z,105
2017-11-03T11:37:03.151Z,105
2017-11-03T11:38:02.799Z,105
2017-11-03T11:39:02.445Z,105
2017-11-03T11:40:03.464Z,105
2017-11-03T11:41:03.109Z,105
2017-11-03T11:42:03.439Z,105
2017-11-03T11:43:03.114Z,105
2017-11-03T11:44:03.094Z,105
2017-11-03T11:45:02.389Z,105
2017-11-03T11:46:03.064Z,105
2017-11-03T11:47:02.372Z,105
2017-11-03T11:48:03.056Z,105
2017-11-03T11:49:02.705Z,110
2017-11-03T11:50:02.687Z,105
2017-11-03T11:51:02.677Z,105
2017-11-03T11:52:02.678Z,105
2017-11-03T11:53:02.324Z,105
2017-11-03T11:54:02.316Z,105
2017-11-03T11:55:02.666Z,105
2017-11-03T11:56:02.977Z,105
2017-11-03T11:57:02.279Z,100
2017-11-03T11:58:03.303Z,105
2017-11-03T11:59:02.944Z,105
2017-11-03T12:00:02.933Z,105
2017-11-03T12:01:03.281Z,105
2017-11-03T12:02:02.569Z,105
2017-11-03T12:03:02.721Z,105
2017-11-03T12:04:02.212Z,100
2017-11-03T12:05:02.222Z,100
2017-11-03T12:06:02.879Z,100
2017-11-03T12:07:02.529Z,100
2017-11-03T12:08:02.863Z,100
2017-11-03T12:09:02.170Z,100
2017-11-03T12:10:02.514Z,100
2017-11-03T12:11:02.522Z,100
2017-11-03T12:12:02.481Z,100
2017-11-03T12:13:02.128Z,100
2017-11-03T12:14:02.462Z,100
2017-11-03T12:15:02.452Z,100
2017-11-03T12:16:02.445Z,100
2017-11-03T12:17:02.439Z,100
2017-11-03T12:18:02.093Z,100
2017-11-03T12:19:02.074Z,95
2017-11-03T12:20:03.095Z,95
2017-11-03T12:21:02.419Z,90
2017-11-03T12:22:02.405Z,90
2017-11-03T12:23:02.049Z,90
2017-11-03T12:24:02.368Z,95
2017-11-03T12:25:02.710Z,95
2017-11-03T12:26:02.345Z,100
2017-11-03T12:27:02.698Z,95
2017-11-03T12:28:02.326Z,95
2017-11-03T12:29:02.326Z,100
2017-11-03T12:30:02.677Z,100
2017-11-03T12:31:02.658Z,100
2017-11-03T12:32:02.329Z,100
2017-11-03T12:33:02.293Z,100
2017-11-03T12:34:02.626Z,100
2017-11-03T12:35:01.935Z,100
2017-11-03T12:36:01.910Z,100
2017-11-03T12:37:02.253Z,95
2017-11-03T12:38:02.587Z,95
2017-11-03T12:39:02.224Z,95
2017-11-03T12:40:01.870Z,95
2017-11-03T12:41:01.866Z,90
2017-11-03T12:42:02.904Z,95
2017-11-03T12:43:02.206Z,95
2017-11-03T12:44:02.869Z,95
2017-11-03T12:45:02.170Z,95
2017-11-03T12:46:02.205Z,95
2017-11-03T12:47:02.844Z,95
2017-11-03T12:48:01.814Z,95
2017-11-03T12:49:02.834Z,100
2017-11-03T12:50:01.775Z,95
2017-11-03T12:51:02.120Z,95
2017-11-03T12:52:02.788Z,95
2017-11-03T12:53:02.101Z,95
2017-11-03T12:54:02.437Z,95
2017-11-03T12:55:02.428Z,95
2017-11-03T12:56:02.777Z,95
2017-11-03T12:57:02.385Z,95
2017-11-03T12:58:02.040Z,95
2017-11-03T12:59:02.046Z,100
2017-11-03T13:00:02.402Z,100
2017-11-03T13:01:02.056Z,110
2017-11-03T13:02:01.663Z,115
2017-11-03T13:03:02.011Z,115
2017-11-03T13:04:01.990Z,110
2017-11-03T13:05:02.685Z,110
2017-11-03T13:06:01.976Z,105
2017-11-03T13:07:01.962Z,110
2017-11-03T13:08:01.941Z,105
2017-11-03T13:09:02.627Z,100
2017-11-03T13:10:01.923Z,100
2017-11-03T13:11:01.648Z,95
2017-11-03T13:12:01.669Z,95
2017-11-03T13:13:01.557Z,95
2017-11-03T13:14:01.889Z,95
2017-11-03T13:15:02.226Z,95
2017-11-03T13:16:01.898Z,95
2017-11-03T13:17:02.195Z,95
2017-11-03T13:18:01.887Z,95
2017-11-03T13:19:01.854Z,95
2017-11-03T13:20:01.869Z,95
2017-11-03T13:21:01.829Z,95
2017-11-03T13:22:02.184Z,95
2017-11-03T13:23:01.813Z,95
2017-11-03T13:24:01.457Z,95
2017-11-03T13:25:01.784Z,95
2017-11-03T13:26:02.124Z,95
2017-11-03T13:27:01.440Z,95
2017-11-03T13:28:01.762Z,95
2017-11-03T13:29:01.753Z,95
2017-11-03T13:30:01.407Z,95
2017-11-03T13:31:01.441Z,95
2017-11-03T13:32:02.446Z,95
2017-11-03T13:33:02.654Z,95
2017-11-03T13:34:02.058Z,90
2017-11-03T13:35:01.363Z,90
2017-11-03T13:36:02.032Z,90
2017-11-03T13:37:01.672Z,90
2017-11-03T13:38:02.011Z,90
2017-11-03T13:39:01.311Z,90
2017-11-03T13:40:02.324Z,95
2017-11-03T13:41:01.637Z,95
2017-11-03T13:42:01.621Z,100
2017-11-03T13:43:02.012Z,100
2017-11-03T13:44:01.614Z,100
2017-11-03T13:45:01.996Z,95
2017-11-03T13:46:01.786Z,90
2017-11-03T13:47:01.240Z,95
2017-11-03T13:48:01.602Z,90
2017-11-03T13:49:01.227Z,85
2017-11-03T13:50:01.220Z,85
2017-11-03T13:51:01.556Z,85
2017-11-03T13:52:01.188Z,85
2017-11-03T13:53:01.189Z,85
2017-11-03T13:54:01.525Z,85
2017-11-03T13:55:01.508Z,85
2017-11-03T13:56:01.839Z,80
2017-11-03T13:57:02.184Z,80
2017-11-03T13:58:01.130Z,80
2017-11-03T13:59:01.122Z,80
2017-11-03T14:00:01.108Z,80
2017-11-03T14:01:01.797Z,80
2017-11-03T14:02:01.294Z,80
2017-11-03T14:03:01.434Z,80
2017-11-03T14:04:01.761Z,80
2017-11-03T14:05:01.755Z,80
2017-11-03T14:06:01.392Z,80
2017-11-03T14:07:02.068Z,80
2017-11-03T14:08:01.709Z,75
2017-11-03T14:09:01.704Z,80
2017-11-03T14:10:02.037Z,80
2017-11-03T14:11:01.451Z,80
2017-11-03T14:12:01.339Z,80
2017-11-03T14:13:01.398Z,80
2017-11-03T14:14:01.998Z,80
2017-11-03T14:15:02.012Z,80
2017-11-03T14:16:01.634Z,80
2017-11-03T14:17:01.670Z,80
2017-11-03T14:18:01.614Z,80
2017-11-03T14:19:00.936Z,80
2017-11-03T14:20:01.288Z,80